Archival Weather

Southern Wisconsin Rgnl

Janesville, Wisconsin (KJVL)

Report from: Tuesday, June 6, 2023 10:15 PM CDT
Current time: Monday, June 17, 2024 4:34 AM CDT

Current weather – Weather history – Daily summaries
Weather forecast

Temperature18.0°C (64.4°F)
Dew point5.0°C (41.0°F)
Winds 5 kts (2.6 m/s, 5.8 mph) East-Northeast (70°)
Visibility10 mi. (16.1 km)
Clouds Scattered clouds 3,500 ft. (1,067 m)
Ceiling: Broken clouds 4,100 ft. (1,250 m)
Overcast 12,000 ft. (3,658 m)
Altimeter29.94 in.Hg (1014 mB)
Relative humidity42 %
Density altitude460 ft. (140 m)
Remarks Fully automated report
Automated weather observing station with precipitation discriminator
Flight conditions Visual Meteorological Conditions
Raw dataKJVL 070315Z AUTO 07005KT 10SM SCT035 BKN041 OVC120 18/05 A2994 RMK AO2
An error has occurred. This application may no longer respond until reloaded. Reload 🗙